ADDS METAR Data INFO
IDs: Format: Raw Decoded Include TAF

Data at: 0259 UTC 21 Jan 2018

K0CO 210254Z AUTO 18017G30KT 10SM SCT031 BKN038 BKN050 M06/M12 A2978 RMK AO2 LTG DSNT NE AND NW
K0CO 210230Z AUTO 17021G28KT 10SM SCT034 SCT040 BKN048 M06/M12 A2979 RMK AO2
K0CO 210212Z AUTO 16022G29KT 151V221 10SM SCT038 SCT046 BKN055 M06/M12 A2980 RMK AO2
K0CO 210154Z AUTO 16020G25KT 10SM SCT033 SCT049 BKN060 M06/M12 A2981 RMK AO2
K0CO 210130Z AUTO 16020G26KT 10SM SCT038 BKN065 OVC075 M05/M12 A2982 RMK AO2
K0CO 210112Z AUTO 18018G27KT 10SM SCT037 BKN060 OVC065 M05/M11 A2984 RMK AO2
K0CO 210053Z AUTO 17023G27KT 10SM SCT038 BKN050 OVC060 M04/M11 A2984 RMK AO2
K0CO 210029Z AUTO 20013G22KT 10SM SCT044 BKN050 OVC095 M04/M10 A2984 RMK AO2
K0CO 210012Z AUTO 21012G26KT 181V241 10SM SCT042 SCT050 BKN095 M04/M10 A2984 RMK AO2
K0CO 201854Z AUTO 24019G39KT 10SM SCT038 BKN047 M02/M08 A2990 RMK AO2
K0CO 201830Z AUTO 25017G32KT 10SM SCT038 SCT047 M02/M09 A2992 RMK AO2
K0CO 201812Z AUTO 25022G32KT 10SM CLR M02/M09 A2991 RMK AO2
K0CO 201754Z AUTO 22014G36KT 191V261 10SM CLR M02/M09 A2993 RMK AO2
K0CO 201730Z AUTO 23013G34KT 191V251 10SM SCT035 M03/M09 A2994 RMK AO2
K0CO 201712Z AUTO 24028G39KT 191V271 10SM CLR M03/M10 A2993 RMK AO2
K0CO 201654Z AUTO 24022G37KT 10SM CLR M03/M10 A2993 RMK AO2
K0CO 201630Z AUTO 27029G46KT 10SM CLR M03/M10 A2992 RMK AO2
K0CO 201612Z AUTO 27026G40KT 10SM CLR M04/M11 A2992 RMK AO2
K0CO 201553Z AUTO 26023G36KT 10SM CLR M05/M11 A2992 RMK AO2
K0CO 201530Z AUTO 26024G37KT 10SM CLR M05/M11 A2991 RMK AO2
K0CO 201512Z AUTO 26020G26KT 10SM CLR M05/M12 A2993 RMK AO2
K0CO 201454Z AUTO 26021G32KT 10SM CLR M06/M12 A2993 RMK AO2
K0CO 201430Z AUTO 27022G34KT 10SM CLR M06/M12 A2993 RMK AO2
K0CO 201412Z AUTO 26010G22KT 10SM CLR M06/M12 A2994 RMK AO2
K0CO 201353Z AUTO 28019G28KT 10SM CLR M06/M12 A2993 RMK AO2
K0CO 201330Z AUTO 27016G22KT 10SM CLR M06/M12 A2993 RMK AO2
K0CO 201312Z AUTO 27019G27KT 10SM CLR M06/M12 A2994 RMK AO2
K0CO 201253Z AUTO 27018G26KT 10SM CLR M06/M12 A2993 RMK AO2
K0CO 201230Z AUTO 27020G29KT 10SM CLR M06/M12 A2993 RMK AO2
K0CO 201212Z AUTO 26011G30KT 10SM CLR M06/M12 A2994 RMK AO2
K0CO 201154Z AUTO 27017G24KT 10SM CLR M06/M12 A2993 RMK AO2
K0CO 201130Z AUTO 26014G22KT 10SM CLR M06/M12 A2994 RMK AO2
K0CO 201112Z AUTO 26009G20KT 10SM CLR M06/M12 A2994 RMK AO2
K0CO 201053Z AUTO 25010G23KT 10SM CLR M06/M12 A2995 RMK AO2
K0CO 201029Z AUTO 27016G25KT 10SM CLR M06/M12 A2995 RMK AO2
K0CO 201011Z AUTO 26007G26KT 10SM CLR M06/M12 A2995 RMK AO2
K0CO 200954Z AUTO 27021G28KT 10SM CLR M06/M12 A2995 RMK AO2
K0CO 200930Z AUTO 26015G32KT 10SM CLR M05/M12 A2995 RMK AO2
K0CO 200912Z AUTO 27028G38KT 10SM CLR M05/M11 A2993 RMK AO2
K0CO 200854Z AUTO 27023G38KT 10SM CLR M05/M11 A2995 RMK AO2
K0CO 200830Z AUTO 28030G42KT 10SM CLR M05/M11 A2994 RMK AO2
K0CO 200812Z AUTO 28039G47KT 10SM CLR M05/M11 A2993 RMK AO2
K0CO 200753Z AUTO 28031G54KT 10SM CLR M04/M11 A2995 RMK AO2
K0CO 200729Z AUTO 28044G61KT 10SM CLR M04/M10 A2993 RMK AO2
K0CO 200711Z AUTO 29031G46KT 10SM CLR M03/M10 A2995 RMK AO2
K0CO 200654Z AUTO 29034G52KT 10SM CLR M03/M10 A2994 RMK AO2
K0CO 200630Z AUTO 28029G52KT 10SM CLR M03/M10 A2997 RMK AO2
K0CO 200612Z AUTO 28039G49KT 10SM CLR M03/M10 A2995 RMK AO2
K0CO 200554Z AUTO 28032G50KT 10SM CLR M03/M10 A2997 RMK AO2
K0CO 200530Z AUTO 27033G48KT 10SM CLR M03/M10 A2996 RMK AO2
K0CO 200512Z AUTO 28029G47KT 10SM CLR M03/M10 A2998 RMK AO2
K0CO 200454Z AUTO 28035G46KT 10SM CLR M03/M10 A2998 RMK AO2
K0CO 200430Z AUTO 28032G50KT 10SM CLR M03/M10 A2998 RMK AO2
K0CO 200412Z AUTO 28028G51KT 10SM CLR M03/M09 A2998 RMK AO2
K0CO 200354Z AUTO 28033G50KT 10SM CLR M03/M09 A2998 RMK AO2
K0CO 200330Z AUTO 27036G57KT 10SM CLR M02/M09 A2996 RMK AO2
K0CO 200312Z AUTO 28038G57KT 10SM CLR M02/M09 A2995 RMK AO2
K0CO 200252Z AUTO 28042G58KT 10SM CLR M02/M09 A2995 RMK AO2
K0CO 200229Z AUTO 28038G52KT 10SM CLR M02/M09 A2995 RMK AO2
K0CO 200211Z AUTO 28030G46KT 10SM CLR M02/M09 A2998 RMK AO2
K0CO 200153Z AUTO 28029G49KT 10SM CLR M02/M09 A2998 RMK AO2
K0CO 200130Z AUTO 28033G47KT 10SM CLR M02/M09 A2998 RMK AO2
K0CO 200112Z AUTO 29026G45KT 10SM CLR M02/M09 A3001 RMK AO2
K0CO 200054Z AUTO 28032G49KT 10SM CLR M02/M09 A3001 RMK AO2
K0CO 200030Z AUTO 28039G54KT 10SM CLR M02/M09 A2998 RMK AO2
K0CO 200012Z AUTO 30035G50KT 10SM CLR M02/M09 A2998 RMK AO2
K0CO 192353Z AUTO 28029G47KT 10SM CLR M02/M08 A3001 RMK AO2
K0CO 192330Z AUTO 30030G57KT 10SM CLR M01/M07 A2999 RMK AO2
K0CO 192312Z AUTO 30029G40KT 10SM CLR M01/M07 A3000 RMK AO2
K0CO 192254Z AUTO 30027G45KT 10SM CLR M01/M07 A3000 RMK AO2
K0CO 192230Z AUTO 29039G48KT 10SM CLR M01/M07 A2998 RMK AO2
K0CO 192212Z AUTO 30030G42KT 10SM CLR M01/M07 A3000 RMK AO2
K0CO 192153Z AUTO 30027G49KT 10SM CLR M01/M07 A2999 RMK AO2
K0CO 192129Z AUTO 30040G54KT 10SM CLR M01/M07 A2999 RMK AO2
K0CO 192111Z AUTO 30031G51KT 10SM CLR 00/M07 A2999 RMK AO2
K0CO 192053Z AUTO 29038G58KT 10SM CLR 00/M07 A2998 RMK AO2
K0CO 192029Z AUTO 30032G47KT 10SM CLR 00/M06 A3000 RMK AO2
K0CO 192011Z AUTO 29034G46KT 10SM CLR 00/M06 A3001 RMK AO2
K0CO 191954Z AUTO 30035G50KT 10SM CLR 00/M06 A3000 RMK AO2
K0CO 191930Z AUTO 30035G49KT 10SM CLR 00/M06 A3001 RMK AO2
K0CO 191912Z AUTO 29043G64KT 10SM CLR 00/M06 A3000 RMK AO2
K0CO 191854Z AUTO 29048G59KT 10SM CLR 00/M06 A3000 RMK AO2
K0CO 191830Z AUTO 29042G66KT 10SM CLR 00/M06 A3001 RMK AO2
K0CO 191812Z AUTO 28043G55KT 10SM CLR 00/M07 A3000 RMK AO2
K0CO 191754Z AUTO 29040G60KT 10SM CLR M01/M07 A3003 RMK AO2
K0CO 191730Z AUTO 29038G56KT 10SM CLR M01/M07 A3003 RMK AO2
K0CO 191712Z AUTO 28042G63KT 10SM CLR M01/M07 A3003 RMK AO2
K0CO 191652Z AUTO 29040G53KT 10SM CLR M01/M08 A3005 RMK AO2
K0CO 191634Z AUTO 29040G53KT 10SM CLR M01/M08 A3004 RMK AO2
K0CO 191612Z AUTO 29040G59KT 10SM CLR M02/M08 A3002 RMK AO2
K0CO 191554Z AUTO 29037G58KT 10SM CLR M02/M08 A3004 RMK AO2
K0CO 191530Z AUTO 29041G57KT 10SM CLR M02/M08 A3002 RMK AO2
K0CO 191512Z AUTO 29039G53KT 10SM CLR M02/M09 A3002 RMK AO2